Time;durP1;ratioP1;P1;durP2;ratioP2;P2;SDS_P1;SDS_P2;PMS_P1;PMS_P2;Temp;Humidity;BMP_temperature;BMP_pressure;BME280_temperature;BME280_humidity;BME280_pressure;Samples;Min_cycle;Max_cycle;Signal;HPM_P1;HPM_P2
2022/10/19 00:00:20;;;;;;;929.97;866.70;;;;;;;12.90;72.33;102107.47;695720;28;22367;-63
2022/10/19 00:00:42;;;;;;;936.05;872.58;;;;;;;12.90;72.24;102115.59;694583;28;22381;-64
2022/10/19 00:01:07;;;;;;;940.37;876.87;;;;;;;12.91;72.22;102118.16;693063;28;22126;-63
2022/10/19 00:01:28;;;;;;;929.75;866.58;;;;;;;12.86;72.07;102101.53;688997;28;136438;-63
2022/10/19 00:01:49;;;;;;;929.55;866.28;;;;;;;12.93;72.38;102115.28;692761;28;22414;-63
2022/10/19 00:02:11;;;;;;;928.17;865.03;;;;;;;12.92;72.40;102117.16;693068;28;22403;-63
2022/10/19 00:02:36;;;;;;;927.85;864.75;;;;;;;12.93;72.09;102113.44;692092;28;46520;-63
2022/10/19 00:02:57;;;;;;;913.58;850.88;;;;;;;12.94;72.61;102104.28;690237;28;115205;-63
2022/10/19 00:03:18;;;;;;;926.40;863.28;;;;;;;12.95;72.09;102116.84;695630;28;24354;-63
2022/10/19 00:03:39;;;;;;;917.08;854.28;;;;;;;12.95;72.05;102119.56;695103;28;22379;-64
2022/10/19 00:04:01;;;;;;;899.92;837.70;;;;;;;12.96;72.42;102114.97;695738;28;22409;-63
2022/10/19 00:04:22;;;;;;;921.95;859.03;;;;;;;12.95;72.06;102119.56;694438;28;45276;-63
2022/10/19 00:04:44;;;;;;;905.75;843.33;;;;;;;12.96;71.96;102121.25;694248;28;22361;-63
2022/10/19 00:05:05;;;;;;;923.92;860.97;;;;;;;12.95;71.98;102119.56;694946;28;46261;-63
2022/10/19 00:05:27;;;;;;;936.30;872.90;;;;;;;12.96;71.96;102114.97;693084;28;46330;-64
2022/10/19 00:05:49;;;;;;;928.42;865.33;;;;;;;12.96;71.76;102121.25;692967;28;21535;-63
2022/10/19 00:06:12;;;;;;;927.78;864.58;;;;;;;12.96;71.97;102123.09;691817;28;45270;-63
2022/10/19 00:06:35;;;;;;;934.47;871.13;;;;;;;12.94;72.28;102115.13;691170;28;69408;-63
2022/10/19 00:06:56;;;;;;;929.35;866.05;;;;;;;12.95;71.86;102114.13;690658;28;67521;-64
2022/10/19 00:07:18;;;;;;;939.22;875.45;;;;;;;12.96;72.34;102109.53;692677;28;21548;-63
2022/10/19 00:07:39;;;;;;;935.00;871.63;;;;;;;12.91;72.11;102110.03;692911;28;46516;-64
2022/10/19 00:08:03;;;;;;;937.55;874.15;;;;;;;12.94;71.92;102119.72;696184;28;1605;-63
2022/10/19 00:08:25;;;;;;;919.72;856.70;;;;;;;12.95;72.37;102124.13;696360;28;989;-63
2022/10/19 00:08:46;;;;;;;912.22;849.63;;;;;;;12.95;71.94;102116.84;694610;28;45048;-63
2022/10/19 00:09:09;;;;;;;927.72;864.78;;;;;;;12.96;72.29;102120.41;695355;28;22418;-63
2022/10/19 00:09:30;;;;;;;921.00;858.25;;;;;;;12.95;72.03;102116.00;693944;28;69438;-63
2022/10/19 00:09:52;;;;;;;917.45;854.72;;;;;;;12.94;72.32;102122.41;695525;28;22393;-63
2022/10/19 00:10:13;;;;;;;923.97;861.08;;;;;;;12.97;72.39;102122.09;693951;28;69230;-63
2022/10/19 00:10:39;;;;;;;926.67;863.65;;;;;;;12.97;71.94;102116.69;695273;28;21542;-63
2022/10/19 00:11:00;;;;;;;939.95;876.45;;;;;;;12.97;72.39;102116.69;691448;28;116107;-63
2022/10/19 00:11:22;;;;;;;946.50;882.80;;;;;;;12.98;72.02;102118.41;692975;28;23434;-63
2022/10/19 00:11:47;;;;;;;939.88;876.40;;;;;;;12.99;71.98;102120.06;691358;28;69427;-64
2022/10/19 00:12:08;;;;;;;937.22;873.80;;;;;;;12.98;71.87;102118.41;689579;28;115083;-63
2022/10/19 00:12:29;;;;;;;917.75;854.95;;;;;;;13.00;72.16;102115.53;692923;28;22363;-64
2022/10/19 00:12:51;;;;;;;928.20;865.10;;;;;;;13.01;72.18;102122.63;692789;28;21445;-63
2022/10/19 00:13:13;;;;;;;933.00;869.70;;;;;;;13.02;72.18;102117.03;693061;28;22419;-63
2022/10/19 00:13:34;;;;;;;942.95;879.25;;;;;;;13.00;72.29;102119.06;691594;28;45006;-63
2022/10/19 00:13:56;;;;;;;935.88;872.47;;;;;;;13.03;72.28;102117.91;692167;28;46331;-63
2022/10/19 00:14:19;;;;;;;935.47;872.08;;;;;;;13.04;71.95;102120.47;692007;28;46334;-64
2022/10/19 00:14:42;;;;;;;940.53;876.92;;;;;;;13.03;72.31;102118.75;691272;28;67410;-63
2022/10/19 00:15:04;;;;;;;941.92;878.33;;;;;;;13.03;71.96;102118.75;692235;28;46462;-63
2022/10/19 00:15:25;;;;;;;943.75;880.15;;;;;;;13.04;72.21;102120.47;692691;28;69166;-63
2022/10/19 00:15:46;;;;;;;943.45;879.78;;;;;;;13.05;71.70;102115.88;694823;28;22411;-63
2022/10/19 00:16:13;;;;;;;927.72;864.60;;;;;;;13.06;72.17;102118.44;693865;28;23476;-63
2022/10/19 00:16:36;;;;;;;927.67;864.53;;;;;;;13.05;71.92;102121.31;689027;28;138049;-63
2022/10/19 00:16:57;;;;;;;939.03;875.25;;;;;;;13.04;71.71;102115.03;690859;28;67387;-63
2022/10/19 00:17:18;;;;;;;940.30;876.50;;;;;;;13.04;71.80;102117.75;693477;28;22386;-63
2022/10/19 00:17:42;;;;;;;937.30;873.80;;;;;;;13.04;72.04;102116.88;694928;28;22376;-63
2022/10/19 00:18:03;;;;;;;932.08;868.78;;;;;;;13.04;71.64;102108.75;692408;28;67272;-63
2022/10/19 00:18:24;;;;;;;936.33;872.80;;;;;;;13.04;71.82;102116.88;692872;28;45245;-63
2022/10/19 00:18:45;;;;;;;934.05;870.63;;;;;;;13.04;72.10;102109.63;692118;28;22402;-62
2022/10/19 00:19:11;;;;;;;941.78;878.28;;;;;;;13.05;71.90;102115.88;694478;28;21519;-63
2022/10/19 00:19:32;;;;;;;936.72;873.30;;;;;;;13.05;72.12;102119.44;691416;28;137683;-63
2022/10/19 00:19:54;;;;;;;939.05;875.58;;;;;;;13.06;71.77;102117.59;695470;28;22440;-64
2022/10/19 00:20:15;;;;;;;937.47;874.08;;;;;;;13.04;72.21;102117.75;695458;28;23745;-63
2022/10/19 00:20:37;;;;;;;936.65;873.25;;;;;;;13.07;72.05;102114.72;694318;28;46378;-64
2022/10/19 00:21:02;;;;;;;932.20;869.03;;;;;;;13.07;71.93;102114.72;692215;28;44424;-63
2022/10/19 00:21:24;;;;;;;929.90;866.80;;;;;;;13.10;72.13;102113.53;689759;28;116036;-63
2022/10/19 00:21:45;;;;;;;938.90;875.50;;;;;;;13.10;71.80;102114.41;692242;28;44364;-63
2022/10/19 00:22:07;;;;;;;927.45;864.45;;;;;;;13.08;71.95;102113.69;694825;28;21532;-63
2022/10/19 00:22:28;;;;;;;930.17;866.97;;;;;;;13.10;72.11;102119.84;694809;28;47350;-64
2022/10/19 00:22:50;;;;;;;937.65;874.25;;;;;;;13.11;72.00;102121.50;695691;28;23465;-63
2022/10/19 00:23:11;;;;;;;934.00;870.70;;;;;;;13.12;72.04;102115.09;692550;28;46659;-63
2022/10/19 00:23:32;;;;;;;924.75;861.60;;;;;;;13.12;71.59;102116.97;692464;28;21545;-64
2022/10/19 00:23:54;;;;;;;938.00;874.47;;;;;;;13.11;71.81;102118.81;695673;28;22405;-64
2022/10/19 00:24:16;;;;;;;932.60;869.28;;;;;;;13.10;71.72;102122.53;692363;28;46411;-63
2022/10/19 00:24:37;;;;;;;910.25;847.65;;;;;;;13.09;71.85;102115.41;694872;28;46199;-63
2022/10/19 00:24:58;;;;;;;913.60;850.97;;;;;;;13.12;71.68;102114.25;695721;28;21356;-63
2022/10/19 00:25:20;;;;;;;922.08;859.17;;;;;;;13.11;71.47;102118.81;695619;28;21544;-63
2022/10/19 00:25:41;;;;;;;933.13;869.85;;;;;;;13.12;71.67;102119.69;694872;28;45242;-62
2022/10/19 00:26:02;;;;;;;914.67;852.05;;;;;;;13.12;71.78;102116.97;695876;28;23483;-63
2022/10/19 00:26:24;;;;;;;911.60;849.03;;;;;;;13.13;72.00;102118.63;695673;28;22379;-63
2022/10/19 00:26:45;;;;;;;930.22;866.95;;;;;;;13.13;71.99;102116.81;694821;28;46315;-63
2022/10/19 00:27:08;;;;;;;923.25;860.05;;;;;;;13.16;71.89;102129.16;693757;28;46763;-63
2022/10/19 00:27:29;;;;;;;918.50;855.63;;;;;;;13.16;71.73;102121.03;694695;28;46598;-63
2022/10/19 00:27:50;;;;;;;924.47;861.47;;;;;;;13.11;71.68;102116.09;694963;28;22439;-64
2022/10/19 00:28:11;;;;;;;920.25;857.25;;;;;;;13.16;71.74;102119.19;692609;28;22392;-63
2022/10/19 00:28:33;;;;;;;920.38;857.47;;;;;;;13.15;71.43;102122.06;692220;28;22409;-63
2022/10/19 00:28:55;;;;;;;915.15;852.42;;;;;;;13.18;71.95;102121.72;689940;28;46329;-64
2022/10/19 00:29:16;;;;;;;902.58;840.28;;;;;;;13.20;71.71;102122.44;691859;28;47211;-63
2022/10/19 00:29:37;;;;;;;929.10;866.00;;;;;;;13.20;71.80;102122.44;692857;28;22392;-63
2022/10/19 00:29:59;;;;;;;920.00;857.13;;;;;;;13.22;71.76;102122.28;691968;28;46173;-63
2022/10/19 00:30:20;;;;;;;922.28;859.35;;;;;;;13.22;71.87;102128.53;692652;28;22279;-63
2022/10/19 00:30:42;;;;;;;898.28;836.17;;;;;;;13.21;71.37;102120.56;692871;28;21568;-64
2022/10/19 00:31:04;;;;;;;905.50;843.17;;;;;;;13.23;71.74;102126.66;693488;28;46285;-63
2022/10/19 00:31:29;;;;;;;915.90;853.20;;;;;;;13.24;71.26;102120.22;695963;28;13504;-63
2022/10/19 00:31:50;;;;;;;923.38;860.45;;;;;;;13.25;71.36;102128.22;694053;28;69405;-63
2022/10/19 00:32:11;;;;;;;924.83;861.88;;;;;;;13.25;71.39;102122.78;695570;28;23826;-63
2022/10/19 00:32:33;;;;;;;914.15;851.47;;;;;;;13.27;71.50;102128.06;693097;28;22362;-63
2022/10/19 00:32:54;;;;;;;910.63;848.05;;;;;;;13.27;71.17;102128.06;692130;28;44364;-64
2022/10/19 00:33:20;;;;;;;908.05;845.63;;;;;;;13.26;71.34;102129.94;692060;28;46789;-64
2022/10/19 00:33:42;;;;;;;915.00;852.40;;;;;;;13.27;71.61;102125.34;689326;28;115128;-64
2022/10/19 00:34:04;;;;;;;918.13;855.45;;;;;;;13.27;71.25;102125.34;692101;28;46397;-64
2022/10/19 00:34:25;;;;;;;915.65;853.05;;;;;;;13.28;71.32;102127.06;693393;28;8878;-64
2022/10/19 00:34:46;;;;;;;919.78;857.05;;;;;;;13.27;71.15;102126.19;692803;28;22371;-63
2022/10/19 00:35:08;;;;;;;909.15;846.78;;;;;;;13.28;71.21;102127.06;692117;28;46398;-63
2022/10/19 00:35:29;;;;;;;914.53;851.85;;;;;;;13.29;71.22;102126.03;695092;28;22317;-63
2022/10/19 00:35:52;;;;;;;929.63;866.42;;;;;;;13.29;71.13;102126.88;693363;28;23474;-63
2022/10/19 00:36:15;;;;;;;922.92;859.95;;;;;;;13.28;71.51;102122.47;693335;28;93389;-63
2022/10/19 00:36:39;;;;;;;919.87;857.03;;;;;;;13.27;71.23;102114.50;691313;28;67554;-63
2022/10/19 00:37:00;;;;;;;929.75;866.47;;;;;;;13.31;71.50;102127.56;690945;28;90837;-63
2022/10/19 00:37:22;;;;;;;919.67;856.67;;;;;;;13.25;71.18;102109.22;693541;28;46459;-63
2022/10/19 00:37:43;;;;;;;923.55;860.50;;;;;;;13.33;71.43;102122.84;692100;28;44392;-64
2022/10/19 00:38:04;;;;;;;915.58;852.88;;;;;;;13.32;71.04;102120.28;692686;28;22430;-64
2022/10/19 00:38:26;;;;;;;916.35;853.60;;;;;;;13.31;70.98;102116.72;692570;28;22406;-64
2022/10/19 00:38:47;;;;;;;911.88;849.28;;;;;;;13.36;71.24;102123.56;691937;28;43522;-63
2022/10/19 00:39:12;;;;;;;904.60;842.20;;;;;;;13.37;71.04;102126.13;691401;28;46312;-64
2022/10/19 00:39:33;;;;;;;921.75;858.80;;;;;;;13.39;71.02;102131.38;689578;28;113582;-64
2022/10/19 00:39:54;;;;;;;924.78;861.78;;;;;;;13.36;71.14;102126.28;693052;28;22388;-64
2022/10/19 00:40:15;;;;;;;935.15;871.85;;;;;;;13.38;70.81;102127.81;695314;28;22219;-63
2022/10/19 00:40:37;;;;;;;931.10;867.83;;;;;;;13.37;71.04;102120.69;692945;28;22406;-63
2022/10/19 00:40:59;;;;;;;927.13;864.10;;;;;;;13.39;70.87;102129.50;692976;28;21460;-63
2022/10/19 00:41:21;;;;;;;938.35;874.80;;;;;;;13.37;70.57;102122.53;691931;28;46235;-64
2022/10/19 00:41:43;;;;;;;946.30;882.58;;;;;;;13.34;70.52;102121.00;692272;28;70152;-63
2022/10/19 00:42:04;;;;;;;925.92;862.92;;;;;;;13.38;70.76;102119.66;693524;28;45068;-63
2022/10/19 00:42:26;;;;;;;926.25;863.15;;;;;;;13.39;70.65;102125.97;692917;28;22460;-63
2022/10/19 00:42:53;;;;;;;931.03;867.72;;;;;;;13.35;70.90;102111.84;692008;28;44381;-63
2022/10/19 00:43:15;;;;;;;918.58;855.72;;;;;;;13.37;70.60;102122.53;689036;28;136325;-64
2022/10/19 00:43:50;;;;;;;930.00;866.70;;;;;;;13.39;70.83;102123.25;694391;28;46335;-63
2022/10/19 00:44:50;;;;;;;921.63;858.75;;;;;;;13.39;70.42;102121.38;691788;28;137742;-63
2022/10/19 00:45:13;;;;;;;924.25;861.22;;;;;;;13.40;70.34;102127.63;689037;28;135986;-64
2022/10/19 00:45:34;;;;;;;923.25;860.22;;;;;;;13.40;70.43;102119.50;691324;28;69479;-63
2022/10/19 00:45:55;;;;;;;911.28;848.80;;;;;;;13.40;70.75;102124.94;693055;28;23420;-63
2022/10/19 00:46:17;;;;;;;916.67;854.03;;;;;;;13.39;70.66;102115.09;692945;28;21539;-62
2022/10/19 00:46:43;;;;;;;916.70;854.03;;;;;;;13.41;70.36;102126.63;692339;28;44513;-64
2022/10/19 00:47:05;;;;;;;926.28;863.08;;;;;;;13.40;70.46;102123.09;691298;28;137971;-63
2022/10/19 00:47:27;;;;;;;915.65;852.95;;;;;;;13.39;70.50;102124.09;694668;28;46435;-64
2022/10/19 00:47:49;;;;;;;928.00;864.88;;;;;;;13.39;70.21;102126.81;694985;28;46212;-63
2022/10/19 00:48:14;;;;;;;930.33;867.15;;;;;;;13.40;70.58;102127.63;694919;28;46285;-63
2022/10/19 00:48:35;;;;;;;918.55;855.78;;;;;;;13.39;70.49;102124.09;692099;28;115097;-63
2022/10/19 00:48:59;;;;;;;918.97;856.22;;;;;;;13.40;70.32;102116.78;695784;28;23388;-63
2022/10/19 00:49:22;;;;;;;926.42;863.42;;;;;;;13.40;70.63;102117.66;693268;28;92093;-63
2022/10/19 00:49:44;;;;;;;921.15;858.25;;;;;;;13.39;70.70;102123.25;694100;28;69422;-63
2022/10/19 00:50:07;;;;;;;916.75;854.05;;;;;;;13.40;70.37;102119.50;694967;28;46319;-63
2022/10/19 00:50:28;;;;;;;922.85;859.97;;;;;;;13.42;70.71;102120.22;694167;28;69431;-63
2022/10/19 00:50:50;;;;;;;923.47;860.45;;;;;;;13.40;70.19;102119.50;695023;28;46390;-63
2022/10/19 00:51:12;;;;;;;921.03;858.13;;;;;;;13.41;70.30;102132.91;695008;28;44380;-63
2022/10/19 00:51:36;;;;;;;921.92;859.08;;;;;;;13.36;70.23;102112.72;695726;28;22408;-64
2022/10/19 00:52:00;;;;;;;921.58;858.67;;;;;;;13.34;70.18;102104.72;692856;28;92100;-64
2022/10/19 00:52:24;;;;;;;922.75;859.67;;;;;;;13.39;70.37;102115.94;693332;28;115276;-63
2022/10/19 00:52:45;;;;;;;918.13;855.22;;;;;;;13.39;70.33;102113.22;694533;28;68334;-64
2022/10/19 00:53:07;;;;;;;917.03;854.28;;;;;;;13.39;70.56;102113.22;695807;28;46378;-63
2022/10/19 00:53:30;;;;;;;922.90;859.92;;;;;;;13.39;70.19;102112.38;695686;28;22400;-63
2022/10/19 00:53:52;;;;;;;913.55;851.00;;;;;;;13.39;70.42;102120.53;694524;28;68200;-63
2022/10/19 00:54:14;;;;;;;917.97;855.20;;;;;;;13.38;69.99;102119.66;695425;28;46270;-63
2022/10/19 00:54:37;;;;;;;920.83;858.03;;;;;;;13.38;70.18;102111.53;695237;28;46304;-64
2022/10/19 00:54:58;;;;;;;915.25;852.53;;;;;;;13.41;70.55;102115.78;694830;28;69613;-63
2022/10/19 00:55:20;;;;;;;904.67;842.25;;;;;;;13.37;70.25;102104.41;696344;28;22427;-63
2022/10/19 00:55:42;;;;;;;915.58;852.83;;;;;;;13.39;70.58;102118.66;694856;28;68296;-63
2022/10/19 00:56:07;;;;;;;926.50;863.33;;;;;;;13.38;70.21;102114.22;696454;28;22458;-64
2022/10/19 00:56:28;;;;;;;925.75;862.55;;;;;;;13.38;70.41;102111.53;692995;28;115104;-63
2022/10/19 00:56:52;;;;;;;917.67;854.85;;;;;;;13.39;70.46;102115.09;694788;28;46343;-63
2022/10/19 00:57:14;;;;;;;922.97;859.78;;;;;;;13.38;70.42;102111.53;691905;28;90990;-63
2022/10/19 00:57:35;;;;;;;920.38;857.38;;;;;;;13.39;70.51;102118.66;696222;28;22325;-64
2022/10/19 00:57:56;;;;;;;906.05;843.67;;;;;;;13.39;70.25;102121.38;695248;28;46421;-63
2022/10/19 00:58:19;;;;;;;905.95;843.50;;;;;;;13.40;70.69;102119.50;696117;28;22415;-63
2022/10/19 00:58:42;;;;;;;927.72;864.60;;;;;;;13.41;70.10;102111.19;695151;28;45225;-63
2022/10/19 00:59:03;;;;;;;915.42;852.83;;;;;;;13.42;70.52;102128.34;694728;28;68452;-63
2022/10/19 00:59:26;;;;;;;912.85;850.20;;;;;;;13.42;70.59;102122.91;695058;28;46167;-63
2022/10/19 00:59:48;;;;;;;907.55;845.20;;;;;;;13.42;70.61;102126.47;695498;28;45232;-63
2022/10/19 01:00:10;;;;;;;906.13;843.90;;;;;;;13.43;70.48;102119.19;694871;28;67579;-63
2022/10/19 01:00:32;;;;;;;911.05;848.63;;;;;;;13.43;70.29;102120.03;693018;28;45163;-63
2022/10/19 01:00:53;;;;;;;910.75;848.25;;;;;;;13.43;70.36;102117.34;692117;28;69306;-63
2022/10/19 01:01:17;;;;;;;911.50;848.88;;;;;;;13.44;70.53;102123.59;693919;28;22480;-63
2022/10/19 01:01:41;;;;;;;903.03;840.58;;;;;;;13.45;70.62;102118.00;691664;28;92072;-63
2022/10/19 01:02:04;;;;;;;909.60;846.92;;;;;;;13.46;70.46;102116.13;691902;28;67275;-63
2022/10/19 01:02:25;;;;;;;910.17;847.53;;;;;;;13.45;70.37;102112.59;691994;28;68162;-63
2022/10/19 01:02:47;;;;;;;913.00;850.30;;;;;;;13.47;70.52;102115.97;693823;28;22395;-63
2022/10/19 01:03:09;;;;;;;918.40;855.60;;;;;;;13.48;70.20;102111.41;692299;28;69450;-63
2022/10/19 01:03:31;;;;;;;921.30;858.35;;;;;;;13.46;69.88;102117.00;692629;28;46388;-63
2022/10/19 01:03:52;;;;;;;904.58;842.22;;;;;;;13.47;70.45;102120.56;693862;28;23388;-63
2022/10/19 01:04:14;;;;;;;915.97;853.28;;;;;;;13.49;70.30;102113.97;694828;28;1074;-63
2022/10/19 01:04:40;;;;;;;921.83;858.83;;;;;;;13.50;70.74;102123.78;694217;28;22397;-63
2022/10/19 01:05:02;;;;;;;913.60;851.00;;;;;;;13.52;70.34;102123.63;690290;28;135988;-63
2022/10/19 01:05:23;;;;;;;922.27;859.33;;;;;;;13.50;70.47;102117.53;694038;28;22526;-63
2022/10/19 01:05:44;;;;;;;914.65;851.92;;;;;;;13.54;70.46;102120.75;693166;28;44209;-63
2022/10/19 01:06:06;;;;;;;910.45;847.97;;;;;;;13.52;70.68;102121.75;693562;28;22400;-63
2022/10/19 01:06:28;;;;;;;901.07;838.80;;;;;;;13.53;70.45;102122.63;693212;28;22621;-63
2022/10/19 01:06:49;;;;;;;913.10;850.53;;;;;;;13.54;70.43;102126.19;691874;28;69475;-63
2022/10/19 01:07:11;;;;;;;912.60;849.90;;;;;;;13.54;70.58;102126.19;693108;28;22343;-63
2022/10/19 01:07:40;;;;;;;913.08;850.45;;;;;;;13.53;70.24;102128.06;689436;28;60448;-64
2022/10/19 01:08:01;;;;;;;909.22;846.70;;;;;;;13.52;70.33;102120.91;690691;28;67470;-63
2022/10/19 01:08:22;;;;;;;902.08;839.75;;;;;;;13.52;70.41;102126.34;693011;28;22406;-63
2022/10/19 01:08:44;;;;;;;909.40;846.90;;;;;;;13.54;70.05;102124.31;690358;28;22410;-63
2022/10/19 01:09:05;;;;;;;910.95;848.45;;;;;;;13.54;70.07;102124.31;690826;28;22409;-63
2022/10/19 01:09:26;;;;;;;908.15;845.70;;;;;;;13.54;70.17;102118.03;691447;28;44387;-63
2022/10/19 01:09:48;;;;;;;907.63;845.17;;;;;;;13.55;70.32;102119.75;693458;28;21526;-63
2022/10/19 01:10:09;;;;;;;906.90;844.53;;;;;;;13.55;70.16;102117.88;692547;28;46324;-63
2022/10/19 01:10:37;;;;;;;911.72;849.17;;;;;;;13.56;70.50;102114.16;693609;28;17209;-63
2022/10/19 01:11:13;;;;;;;909.05;846.58;;;;;;;13.56;70.56;102119.59;689598;28;137863;-63
2022/10/19 01:11:41;;;;;;;903.40;841.13;;;;;;;13.57;70.29;102117.72;689337;28;137693;-63
2022/10/19 01:12:06;;;;;;;906.47;844.07;;;;;;;13.55;70.19;102115.16;688769;28;158707;-63
2022/10/19 01:12:55;;;;;;;915.38;852.70;;;;;;;13.56;70.38;102119.59;689591;28;137232;-63
2022/10/19 01:13:27;;;;;;;910.90;848.33;;;;;;;13.56;70.12;102116.88;689237;28;137877;-63
2022/10/19 01:13:55;;;;;;;909.28;846.90;;;;;;;13.57;70.21;102121.28;688591;28;157437;-62
2022/10/19 01:14:27;;;;;;;912.35;849.88;;;;;;;13.58;70.04;102117.56;689372;28;137601;-63
2022/10/19 01:15:00;;;;;;;908.55;846.15;;;;;;;13.58;70.44;102117.56;689116;28;135853;-63
2022/10/19 01:15:28;;;;;;;908.55;846.13;;;;;;;13.59;70.27;102124.69;688837;28;137724;-63
2022/10/19 01:15:54;;;;;;;916.42;853.70;;;;;;;13.58;70.24;102117.56;689063;28;138356;-63
2022/10/19 01:16:20;;;;;;;912.92;850.22;;;;;;;13.59;70.23;102113.84;688855;28;138129;-63
2022/10/19 01:16:49;;;;;;;906.85;844.45;;;;;;;13.59;70.03;102121.09;688877;28;138111;-63
2022/10/19 01:17:14;;;;;;;918.90;855.88;;;;;;;13.58;70.08;102119.44;688439;28;137896;-63
2022/10/19 01:17:43;;;;;;;918.33;855.47;;;;;;;13.60;70.31;102122.81;689825;28;116228;-62
2022/10/19 01:18:10;;;;;;;921.88;859.08;;;;;;;13.60;69.83;102114.69;688834;28;137835;-63
2022/10/19 01:18:39;;;;;;;913.33;850.72;;;;;;;13.61;69.84;102116.38;691202;28;137177;-63
2022/10/19 01:19:05;;;;;;;906.08;843.70;;;;;;;13.59;69.93;102119.25;691475;28;136208;-63
2022/10/19 01:19:56;;;;;;;915.40;852.67;;;;;;;13.58;70.24;102109.41;691624;28;138412;-63
2022/10/19 01:20:42;;;;;;;908.00;845.55;;;;;;;13.61;70.21;102117.22;691665;28;135990;-62
2022/10/19 01:21:22;;;;;;;910.20;847.70;;;;;;;13.57;69.92;102104.97;691554;28;137852;-63
2022/10/19 01:21:47;;;;;;;909.97;847.40;;;;;;;13.63;69.96;102117.06;688957;28;136177;-63
2022/10/19 01:22:18;;;;;;;904.65;842.33;;;;;;;13.64;69.97;102116.91;689590;28;113505;-63
2022/10/19 01:22:47;;;;;;;910.58;847.97;;;;;;;13.65;70.12;102110.47;688944;28;138047;-63
2022/10/19 01:23:37;;;;;;;913.70;851.10;;;;;;;13.67;70.04;102108.44;691575;28;60185;-62
2022/10/19 01:24:33;;;;;;;908.03;845.60;;;;;;;13.69;69.71;102100.97;688000;28;156026;-63
2022/10/19 01:25:03;;;;;;;912.10;849.58;;;;;;;13.70;69.79;102101.84;687899;28;160608;-63
2022/10/19 01:25:33;;;;;;;909.65;847.08;;;;;;;13.68;69.45;102095.69;685769;28;138456;-62
2022/10/19 01:26:01;;;;;;;915.45;852.70;;;;;;;13.72;69.27;102098.94;687818;28;137848;-63
2022/10/19 01:26:36;;;;;;;913.03;850.38;;;;;;;13.69;69.26;102094.69;688548;28;138587;-63
2022/10/19 01:27:44;;;;;;;914.20;851.47;;;;;;;13.70;68.94;102102.66;687359;28;160629;-63
2022/10/19 01:28:16;;;;;;;919.53;856.75;;;;;;;13.73;69.02;102108.78;688631;28;137797;-63
2022/10/19 01:28:45;;;;;;;909.80;847.38;;;;;;;13.73;68.88;102101.50;688467;28;137638;-61
2022/10/19 01:29:14;;;;;;;913.08;850.63;;;;;;;13.75;69.07;102106.78;688927;28;136280;-63
2022/10/19 01:29:54;;;;;;;916.60;854.00;;;;;;;13.76;69.08;102105.72;688801;28;137644;-64
2022/10/19 01:30:18;;;;;;;915.67;853.10;;;;;;;13.78;69.03;102106.44;688858;28;137224;-63
2022/10/19 01:30:44;;;;;;;916.20;853.45;;;;;;;13.77;68.88;102100.13;690500;28;115650;-63
2022/10/19 01:31:17;;;;;;;909.20;846.72;;;;;;;13.78;68.60;102107.28;691230;28;138374;-64
2022/10/19 01:31:44;;;;;;;905.90;843.45;;;;;;;13.78;68.25;102104.56;691621;28;137799;-64
2022/10/19 01:32:08;;;;;;;912.05;849.45;;;;;;;13.78;68.52;102103.72;691479;28;137553;-64
2022/10/19 01:32:34;;;;;;;910.45;847.95;;;;;;;13.79;68.60;102099.97;693899;28;69282;-63
2022/10/19 01:33:03;;;;;;;902.20;839.95;;;;;;;13.80;68.54;102102.53;691317;28;136401;-63
2022/10/19 01:33:32;;;;;;;914.75;851.97;;;;;;;13.79;68.02;102105.41;691058;28;136225;-64
2022/10/19 01:33:57;;;;;;;909.13;846.63;;;;;;;13.79;67.92;102099.97;690537;28;157524;-63
2022/10/19 01:34:23;;;;;;;911.92;849.33;;;;;;;13.79;68.26;102103.56;692028;28;115253;-64
2022/10/19 01:34:49;;;;;;;914.67;851.97;;;;;;;13.80;68.30;102105.25;691408;28;138143;-62
2022/10/19 01:35:16;;;;;;;907.85;845.42;;;;;;;13.80;68.41;102105.25;691592;28;137884;-62
2022/10/19 01:35:41;;;;;;;911.88;849.28;;;;;;;13.82;68.12;102105.06;691458;28;137960;-62
2022/10/19 01:36:09;;;;;;;920.22;857.45;;;;;;;13.82;68.15;102096.94;690416;28;136437;-63
2022/10/19 01:36:36;;;;;;;912.97;850.38;;;;;;;13.82;67.95;102099.66;688130;28;161028;-63
2022/10/19 01:37:02;;;;;;;904.63;842.22;;;;;;;13.81;67.80;102101.53;688481;28;136450;-63
2022/10/19 01:37:29;;;;;;;912.47;849.55;;;;;;;13.80;67.86;102093.53;688641;28;138158;-63
2022/10/19 01:37:57;;;;;;;916.63;853.83;;;;;;;13.80;67.89;102094.38;689070;28;138691;-63
2022/10/19 01:38:25;;;;;;;902.58;840.28;;;;;;;13.80;67.91;102094.38;688817;28;137685;-63
2022/10/19 01:38:50;;;;;;;912.70;850.13;;;;;;;13.80;67.85;102096.25;688587;28;138105;-63
2022/10/19 01:39:19;;;;;;;912.85;850.30;;;;;;;13.80;67.67;102099.81;688872;28;136716;-64
2022/10/19 01:39:44;;;;;;;917.88;855.00;;;;;;;13.80;67.96;102097.09;688767;28;136241;-63
2022/10/19 01:40:09;;;;;;;912.15;849.58;;;;;;;13.80;67.87;102104.41;690578;28;90812;-63
2022/10/19 01:40:36;;;;;;;909.88;847.28;;;;;;;13.81;67.97;102106.13;689332;28;137700;-63
2022/10/19 01:41:03;;;;;;;914.50;851.85;;;;;;;13.80;67.59;102101.69;690407;28;137762;-64
2022/10/19 01:41:29;;;;;;;908.35;845.90;;;;;;;13.81;67.94;102100.69;691476;28;136331;-64
2022/10/19 01:41:57;;;;;;;914.25;851.58;;;;;;;13.79;67.47;102095.41;691452;28;136338;-64
2022/10/19 01:42:23;;;;;;;904.58;842.38;;;;;;;13.79;67.66;102092.69;690824;28;161082;-64
2022/10/19 01:42:47;;;;;;;912.63;850.15;;;;;;;13.77;67.80;102086.56;691570;28;137352;-64
2022/10/19 01:43:13;;;;;;;910.42;848.05;;;;;;;13.74;67.62;102088.78;692884;28;92127;-63
2022/10/19 01:43:40;;;;;;;904.30;841.92;;;;;;;13.75;67.79;102093.19;690910;28;138064;-64
2022/10/19 01:44:07;;;;;;;911.60;849.15;;;;;;;13.73;67.91;102089.78;691053;28;138166;-64
2022/10/19 01:44:32;;;;;;;918.85;856.03;;;;;;;13.73;67.90;102089.78;691358;28;138255;-64
2022/10/19 01:44:59;;;;;;;917.78;855.00;;;;;;;13.72;67.94;102083.50;692241;28;115313;-64
2022/10/19 01:45:24;;;;;;;913.30;850.63;;;;;;;13.71;67.75;102087.22;690455;28;161088;-64
2022/10/19 01:45:48;;;;;;;912.60;849.90;;;;;;;13.70;67.73;102091.81;691199;28;115010;-64
2022/10/19 01:46:12;;;;;;;913.80;851.17;;;;;;;13.69;67.96;102087.38;690070;28;92996;-64
2022/10/19 01:46:37;;;;;;;914.85;852.15;;;;;;;13.68;67.91;102088.41;690231;28;90728;-64
2022/10/19 01:47:03;;;;;;;915.83;853.03;;;;;;;13.66;68.08;102095.84;687997;28;138988;-64
2022/10/19 01:47:27;;;;;;;907.00;844.28;;;;;;;13.65;67.72;102098.72;689162;28;115214;-64
2022/10/19 01:47:51;;;;;;;897.28;835.13;;;;;;;13.63;68.27;102089.91;690454;28;90475;-63
2022/10/19 01:48:14;;;;;;;906.88;844.42;;;;;;;13.63;68.27;102089.91;689385;28;116522;-64
2022/10/19 01:48:40;;;;;;;911.67;848.97;;;;;;;13.62;68.35;102096.34;690752;28;69322;-64
2022/10/19 01:49:08;;;;;;;910.70;848.17;;;;;;;13.57;68.08;102085.97;688862;28;138152;-64
2022/10/19 01:49:33;;;;;;;906.03;843.63;;;;;;;13.60;68.47;102093.78;688717;28;137683;-64
2022/10/19 01:49:58;;;;;;;903.63;841.35;;;;;;;13.60;68.52;102093.78;688432;28;138422;-64